Time;durP1;ratioP1;P1;durP2;ratioP2;P2;SDS_P1;SDS_P2;PMS_P1;PMS_P2;Temp;Humidity;BMP_temperature;BMP_pressure;BME280_temperature;BME280_humidity;BME280_pressure;Samples;Min_cycle;Max_cycle;Signal;HPM_P1;HPM_P2
2022/10/22 00:01:40;;;;;;;14.75;7.50;;;9.20;99.90;;;;;;4983248;28;20113;-76
2022/10/22 00:04:06;;;;;;;10.40;6.93;;;9.20;99.90;;;;;;5000841;28;20052;-76
2022/10/22 00:06:32;;;;;;;13.40;7.78;;;9.20;99.90;;;;;;4983365;28;20034;-75
2022/10/22 00:08:58;;;;;;;17.58;7.68;;;9.20;99.90;;;;;;5000388;28;20081;-76
2022/10/22 00:11:25;;;;;;;19.27;7.97;;;9.20;99.90;;;;;;4982202;28;20056;-76
2022/10/22 00:13:51;;;;;;;16.05;7.63;;;9.20;99.90;;;;;;4999590;28;20026;-75
2022/10/22 00:16:17;;;;;;;8.05;6.53;;;9.20;99.90;;;;;;4999974;28;20105;-76
2022/10/22 00:18:42;;;;;;;13.55;7.97;;;9.20;99.90;;;;;;4999329;28;20105;-75
2022/10/22 00:21:08;;;;;;;16.33;7.18;;;9.20;99.90;;;;;;5000931;28;20023;-75
2022/10/22 00:23:34;;;;;;;11.38;7.78;;;9.20;99.90;;;;;;5003524;28;20529;-76
2022/10/22 00:26:00;;;;;;;13.57;7.75;;;9.10;99.90;;;;;;4985704;28;20050;-75
2022/10/22 00:28:26;;;;;;;15.98;7.75;;;9.10;99.90;;;;;;4984487;28;20066;-76
2022/10/22 00:30:59;;;;;;;14.25;7.88;;;9.10;99.90;;;;;;4984807;28;20026;-76
2022/10/22 00:33:26;;;;;;;14.73;8.73;;;9.10;99.90;;;;;;4985304;28;20026;-76
2022/10/22 00:35:52;;;;;;;17.88;7.70;;;9.10;99.90;;;;;;4984401;28;20038;-76
2022/10/22 00:38:18;;;;;;;16.40;8.00;;;9.10;99.90;;;;;;5002403;28;20038;-76
2022/10/22 00:40:43;;;;;;;13.65;7.03;;;9.10;99.90;;;;;;5002000;28;20101;-75
2022/10/22 00:43:15;;;;;;;13.63;8.18;;;9.00;99.90;;;;;;5002018;28;20117;-75
2022/10/22 00:45:43;;;;;;;13.32;7.75;;;9.00;99.90;;;;;;4985205;28;20023;-75
2022/10/22 00:48:10;;;;;;;11.80;7.70;;;8.90;99.90;;;;;;5001753;28;20196;-76
2022/10/22 00:50:45;;;;;;;12.43;7.97;;;8.90;99.90;;;;;;4999489;28;20026;-76
2022/10/22 00:53:20;;;;;;;12.05;7.63;;;8.80;99.90;;;;;;5000826;28;20030;-76
2022/10/22 00:55:50;;;;;;;10.93;7.18;;;8.80;99.90;;;;;;5001056;28;20373;-75
2022/10/22 00:58:17;;;;;;;15.20;8.07;;;8.70;99.90;;;;;;5001167;28;20026;-76
2022/10/22 01:00:43;;;;;;;10.40;6.90;;;8.70;99.90;;;;;;4983100;28;20050;-75
2022/10/22 01:03:09;;;;;;;15.60;7.22;;;8.60;99.90;;;;;;4983160;28;20026;-76
2022/10/22 01:05:59;;;;;;;12.40;7.63;;;8.60;99.90;;;;;;5000077;28;20533;-77
2022/10/22 01:08:41;;;;;;;13.48;7.70;;;8.50;99.90;;;;;;4990375;28;20081;-75
2022/10/22 01:11:25;;;;;;;13.88;8.50;;;8.40;99.90;;;;;;4982570;28;20374;-76
2022/10/22 01:14:29;;;;;;;10.80;7.63;;;8.30;99.90;;;;;;4982620;28;20030;-76
2022/10/22 01:17:13;;;;;;;16.90;10.20;;;8.30;99.90;;;;;;4980989;28;20043;-76
2022/10/22 01:19:55;;;;;;;15.75;9.95;;;8.30;99.90;;;;;;4981963;28;20027;-76
2022/10/22 01:22:39;;;;;;;15.68;9.38;;;8.30;99.90;;;;;;4982295;28;20114;-76
2022/10/22 01:25:29;;;;;;;14.98;8.55;;;8.30;99.90;;;;;;4999569;28;20414;-76
2022/10/22 01:28:01;;;;;;;13.75;8.57;;;8.40;99.90;;;;;;4999413;28;20042;-76
2022/10/22 01:30:27;;;;;;;16.08;9.80;;;8.40;99.90;;;;;;4999223;28;20053;-76
2022/10/22 01:32:57;;;;;;;16.42;8.45;;;8.40;99.90;;;;;;4998538;28;20435;-75
2022/10/22 01:35:28;;;;;;;15.82;9.45;;;8.40;99.90;;;;;;4999454;28;20022;-76
2022/10/22 01:38:03;;;;;;;16.30;9.90;;;8.40;99.90;;;;;;4999098;28;20105;-76
2022/10/22 01:40:29;;;;;;;20.20;11.10;;;8.40;99.90;;;;;;4981622;28;20570;-76
2022/10/22 01:43:06;;;;;;;19.13;9.50;;;8.30;99.90;;;;;;4999139;28;20022;-76
2022/10/22 01:45:35;;;;;;;14.68;9.43;;;8.40;99.90;;;;;;4981236;28;20078;-76
2022/10/22 01:48:16;;;;;;;12.55;8.63;;;8.30;99.90;;;;;;4999108;28;20109;-76
2022/10/22 01:50:51;;;;;;;13.45;8.68;;;8.30;99.90;;;;;;4998738;28;20093;-76
2022/10/22 01:53:41;;;;;;;14.45;8.27;;;8.30;99.90;;;;;;4998819;28;20026;-76
2022/10/22 01:56:10;;;;;;;13.23;8.13;;;8.30;99.90;;;;;;4998558;28;20101;-76
2022/10/22 01:59:01;;;;;;;16.33;8.60;;;8.30;99.90;;;;;;4977157;28;20132;-76
2022/10/22 02:01:36;;;;;;;12.13;7.63;;;8.30;99.90;;;;;;4978632;28;20540;-76
2022/10/22 02:04:08;;;;;;;17.40;8.70;;;8.30;99.90;;;;;;4977143;28;20090;-76
2022/10/22 02:06:35;;;;;;;13.90;8.45;;;8.40;99.90;;;;;;4978690;28;20039;-76
2022/10/22 02:09:02;;;;;;;16.50;9.20;;;8.40;99.90;;;;;;4978358;28;20056;-76
2022/10/22 02:11:29;;;;;;;14.65;7.13;;;8.50;99.90;;;;;;4977884;28;20033;-76
2022/10/22 02:14:00;;;;;;;15.55;7.85;;;8.50;99.90;;;;;;4977224;28;20031;-76
2022/10/22 02:16:33;;;;;;;13.10;7.78;;;8.50;99.90;;;;;;4978568;28;20031;-76
2022/10/22 02:19:12;;;;;;;12.45;7.55;;;8.50;99.90;;;;;;4977399;28;20038;-76
2022/10/22 02:21:38;;;;;;;17.77;8.45;;;8.50;99.90;;;;;;4978319;28;20022;-76
2022/10/22 02:24:04;;;;;;;13.95;7.63;;;8.50;99.90;;;;;;4975969;28;20034;-76
2022/10/22 02:26:36;;;;;;;12.93;8.18;;;8.60;99.90;;;;;;4976359;28;20034;-76
2022/10/22 02:29:11;;;;;;;18.90;7.65;;;8.60;99.90;;;;;;4975831;28;20019;-77
2022/10/22 02:31:39;;;;;;;13.90;8.23;;;8.60;99.90;;;;;;4976145;28;20034;-75
2022/10/22 02:34:10;;;;;;;13.93;7.07;;;8.60;99.90;;;;;;4974949;28;20112;-76
2022/10/22 02:36:38;;;;;;;17.33;8.10;;;8.60;99.90;;;;;;4974732;28;20034;-75
2022/10/22 02:39:05;;;;;;;17.60;7.88;;;8.60;99.90;;;;;;4975925;28;20037;-76
2022/10/22 02:41:31;;;;;;;11.05;7.32;;;8.60;99.90;;;;;;4974769;28;20422;-76
2022/10/22 02:43:57;;;;;;;11.48;7.15;;;8.60;99.90;;;;;;4973627;28;20023;-75
2022/10/22 02:46:24;;;;;;;15.20;8.43;;;8.50;99.90;;;;;;4974512;28;20074;-76
2022/10/22 02:48:50;;;;;;;19.30;7.97;;;8.50;99.90;;;;;;4976066;28;20058;-76
2022/10/22 02:51:15;;;;;;;17.55;8.10;;;8.50;99.90;;;;;;4975184;28;20034;-76
2022/10/22 02:53:41;;;;;;;13.05;8.10;;;8.40;99.90;;;;;;4976420;28;20455;-76
2022/10/22 02:56:07;;;;;;;12.48;8.10;;;8.40;99.90;;;;;;4976216;28;20530;-76
2022/10/22 02:58:33;;;;;;;15.05;7.65;;;8.40;99.90;;;;;;4978538;28;20047;-76
2022/10/22 03:00:58;;;;;;;18.10;8.27;;;8.30;99.90;;;;;;4979686;28;20466;-76
2022/10/22 03:03:24;;;;;;;17.23;8.68;;;8.30;99.90;;;;;;4978662;28;20455;-76
2022/10/22 03:05:50;;;;;;;12.75;8.00;;;8.30;99.90;;;;;;4977635;28;20029;-76
2022/10/22 03:08:16;;;;;;;12.98;8.15;;;8.20;99.90;;;;;;4978612;28;20066;-76
2022/10/22 03:10:42;;;;;;;15.45;8.20;;;8.10;99.90;;;;;;4977389;28;20042;-76
2022/10/22 03:13:08;;;;;;;11.93;7.93;;;8.10;99.90;;;;;;4978309;28;20035;-76
2022/10/22 03:15:34;;;;;;;11.65;8.15;;;8.10;99.90;;;;;;4978164;28;20022;-76
2022/10/22 03:18:00;;;;;;;12.70;8.52;;;8.10;99.90;;;;;;4977098;28;20042;-76
2022/10/22 03:20:26;;;;;;;13.48;8.05;;;8.00;99.90;;;;;;4976856;28;20031;-76
2022/10/22 03:22:52;;;;;;;13.13;7.80;;;8.10;99.90;;;;;;4977243;28;20073;-77
2022/10/22 03:25:21;;;;;;;15.35;7.75;;;8.10;99.90;;;;;;4976839;28;20031;-77
2022/10/22 03:27:50;;;;;;;18.65;7.18;;;8.00;99.90;;;;;;4976692;28;20039;-76
2022/10/22 03:30:16;;;;;;;13.10;8.35;;;8.10;99.90;;;;;;4977158;28;20107;-76
2022/10/22 03:32:41;;;;;;;17.80;8.95;;;8.10;99.90;;;;;;4976421;28;20043;-76
2022/10/22 03:35:07;;;;;;;12.00;8.25;;;8.10;99.90;;;;;;4978048;28;20037;-76
2022/10/22 03:37:34;;;;;;;17.85;8.63;;;8.00;99.90;;;;;;4976511;28;20431;-76
2022/10/22 03:40:00;;;;;;;14.80;8.02;;;8.00;99.90;;;;;;4977821;28;20501;-76
2022/10/22 03:42:26;;;;;;;20.17;7.43;;;8.00;99.90;;;;;;4977170;28;20391;-76
2022/10/22 03:44:52;;;;;;;12.82;7.75;;;7.90;99.90;;;;;;4977220;28;20034;-76
2022/10/22 03:47:18;;;;;;;13.73;7.63;;;7.90;99.90;;;;;;4977269;28;20035;-76
2022/10/22 03:49:43;;;;;;;14.60;8.57;;;7.90;99.90;;;;;;4976437;28;20023;-76
2022/10/22 03:52:12;;;;;;;15.57;8.00;;;7.90;99.90;;;;;;4977239;28;20029;-76
2022/10/22 03:54:38;;;;;;;18.37;8.43;;;7.90;99.90;;;;;;4976339;28;20031;-76
2022/10/22 03:57:05;;;;;;;14.77;8.95;;;7.90;99.90;;;;;;4980877;28;20718;-76
2022/10/22 03:59:36;;;;;;;15.48;8.18;;;7.80;99.90;;;;;;4993324;28;20061;-76
2022/10/22 04:02:02;;;;;;;14.27;8.52;;;7.80;99.90;;;;;;4982545;28;20092;-76
2022/10/22 04:04:28;;;;;;;17.50;8.85;;;7.80;99.90;;;;;;5000165;28;20030;-76
2022/10/22 04:06:53;;;;;;;20.95;7.97;;;7.80;99.90;;;;;;5000303;28;20088;-76
2022/10/22 04:09:19;;;;;;;13.57;7.93;;;7.70;99.90;;;;;;5000936;28;20030;-76
2022/10/22 04:11:45;;;;;;;13.80;7.75;;;7.60;99.90;;;;;;4985808;28;20023;-76
2022/10/22 04:14:13;;;;;;;12.85;8.48;;;7.60;99.90;;;;;;4985523;28;20383;-76
2022/10/22 04:16:39;;;;;;;13.13;7.82;;;7.50;99.90;;;;;;5002112;28;20030;-76
2022/10/22 04:19:06;;;;;;;15.95;7.75;;;7.50;99.90;;;;;;4985613;28;20026;-76
2022/10/22 04:21:32;;;;;;;12.05;7.68;;;7.40;99.90;;;;;;5002410;28;20371;-76
2022/10/22 04:23:57;;;;;;;12.75;8.25;;;7.40;99.90;;;;;;4984783;28;20037;-76
2022/10/22 04:26:23;;;;;;;13.23;7.88;;;7.40;99.90;;;;;;4985105;28;20037;-76
2022/10/22 04:28:50;;;;;;;12.13;8.52;;;7.30;99.90;;;;;;5002276;28;20022;-76
2022/10/22 04:31:21;;;;;;;17.40;9.23;;;7.40;99.90;;;;;;5001127;28;20049;-76
2022/10/22 04:33:52;;;;;;;17.13;9.50;;;7.40;99.90;;;;;;5000797;28;20030;-76
2022/10/22 04:36:18;;;;;;;16.27;8.30;;;7.40;99.90;;;;;;5001117;28;20045;-76
2022/10/22 04:38:45;;;;;;;14.68;8.60;;;7.50;99.90;;;;;;4983416;28;20027;-76
2022/10/22 04:41:13;;;;;;;14.63;8.70;;;7.50;99.90;;;;;;4983333;28;20417;-76
2022/10/22 04:43:40;;;;;;;12.50;8.85;;;7.60;99.90;;;;;;5001024;28;20454;-76
2022/10/22 04:46:09;;;;;;;12.88;8.73;;;7.70;99.90;;;;;;5000862;28;20026;-76
2022/10/22 04:48:36;;;;;;;16.83;9.30;;;7.70;99.90;;;;;;5000548;28;20035;-76
2022/10/22 04:51:03;;;;;;;15.40;8.50;;;7.70;99.90;;;;;;5000226;28;20109;-76
2022/10/22 04:53:29;;;;;;;13.50;8.85;;;7.80;99.90;;;;;;5000519;28;20454;-76
2022/10/22 04:56:04;;;;;;;17.02;8.48;;;7.90;99.90;;;;;;5000163;28;20126;-76
2022/10/22 04:58:30;;;;;;;22.58;8.80;;;7.90;99.90;;;;;;4982610;28;20061;-75
2022/10/22 05:00:56;;;;;;;12.45;8.05;;;8.00;99.90;;;;;;5000121;28;20030;-76
2022/10/22 05:03:24;;;;;;;15.00;8.18;;;8.00;99.90;;;;;;4999772;28;20031;-77
2022/10/22 05:05:49;;;;;;;11.45;7.93;;;8.10;99.90;;;;;;4999701;28;20026;-76
2022/10/22 05:08:15;;;;;;;12.45;7.88;;;8.10;99.90;;;;;;4998380;28;20105;-76
2022/10/22 05:10:40;;;;;;;16.17;9.27;;;8.10;99.90;;;;;;4982680;28;20033;-75
2022/10/22 05:13:06;;;;;;;17.95;9.13;;;8.10;99.90;;;;;;5000589;28;20418;-76
2022/10/22 05:15:32;;;;;;;16.58;9.75;;;8.20;99.90;;;;;;4982960;28;20022;-76
2022/10/22 05:17:58;;;;;;;15.07;8.70;;;8.10;99.90;;;;;;4983084;28;20030;-76
2022/10/22 05:20:24;;;;;;;14.45;7.72;;;8.10;99.90;;;;;;4982619;28;20037;-77
2022/10/22 05:22:49;;;;;;;16.25;8.65;;;8.10;99.90;;;;;;5000087;28;20042;-76
2022/10/22 05:25:15;;;;;;;13.15;7.55;;;8.20;99.90;;;;;;5000019;28;20026;-77
2022/10/22 05:27:41;;;;;;;14.13;8.32;;;8.20;99.90;;;;;;4982092;28;20038;-76
2022/10/22 05:30:07;;;;;;;12.00;7.72;;;8.20;99.90;;;;;;4999321;28;20027;-76
2022/10/22 05:32:34;;;;;;;13.27;7.78;;;8.20;99.90;;;;;;4981269;28;20022;-76
2022/10/22 05:35:00;;;;;;;17.13;8.18;;;8.20;99.90;;;;;;4982830;28;20390;-76
2022/10/22 05:37:25;;;;;;;17.90;8.48;;;8.30;99.90;;;;;;4999628;28;20042;-76
2022/10/22 05:39:51;;;;;;;16.30;7.97;;;8.30;99.90;;;;;;4999237;28;20076;-76
2022/10/22 05:42:16;;;;;;;12.65;8.32;;;8.30;99.90;;;;;;4983713;28;20179;-78
2022/10/22 05:44:42;;;;;;;18.00;8.23;;;8.30;99.90;;;;;;4984931;28;20026;-75
2022/10/22 05:47:08;;;;;;;15.52;9.02;;;8.30;99.90;;;;;;5001124;28;20035;-75
2022/10/22 05:49:34;;;;;;;14.57;8.75;;;8.30;99.90;;;;;;5003186;28;20430;-77
2022/10/22 05:52:00;;;;;;;13.77;8.63;;;8.30;99.90;;;;;;5003976;28;20030;-76
2022/10/22 05:54:25;;;;;;;14.60;8.40;;;8.30;99.90;;;;;;5004698;28;20027;-76
2022/10/22 05:56:51;;;;;;;14.30;8.70;;;8.40;99.90;;;;;;4986039;28;20089;-77
2022/10/22 05:59:17;;;;;;;21.55;10.15;;;8.40;99.90;;;;;;4986496;28;20054;-77
2022/10/22 06:01:43;;;;;;;13.27;9.35;;;8.40;99.90;;;;;;5004404;28;20053;-77
2022/10/22 06:04:11;;;;;;;19.08;8.15;;;8.50;99.90;;;;;;5004013;28;20023;-77
2022/10/22 06:06:46;;;;;;;11.55;6.60;;;8.50;99.90;;;;;;4978849;28;20034;-58
2022/10/22 06:09:14;;;;;;;14.93;8.35;;;8.60;99.90;;;;;;4995665;28;20031;-58
2022/10/22 06:11:40;;;;;;;12.77;8.75;;;8.70;99.90;;;;;;4978113;28;20033;-58
2022/10/22 06:14:06;;;;;;;14.90;9.27;;;8.80;99.90;;;;;;4999432;28;20034;-77
2022/10/22 06:16:31;;;;;;;15.93;9.15;;;8.80;99.90;;;;;;5003593;28;20082;-77
2022/10/22 06:19:00;;;;;;;21.13;8.50;;;8.90;99.90;;;;;;5002940;28;20034;-76
2022/10/22 06:21:26;;;;;;;;;;;8.90;99.90;;;;;;5004136;28;20026;-77
2022/10/22 06:23:55;;;;;;;16.85;8.00;;;8.90;99.90;;;;;;4985172;28;19912;-80
2022/10/22 06:26:20;;;;;;;15.30;8.70;;;9.00;99.90;;;;;;5002393;28;20497;-78
2022/10/22 06:28:46;;;;;;;13.43;7.93;;;9.10;99.90;;;;;;4985181;28;20269;-78
2022/10/22 06:31:12;;;;;;;14.80;8.35;;;9.20;99.90;;;;;;4986959;28;20029;-79
2022/10/22 06:33:41;;;;;;;17.67;8.02;;;9.30;99.90;;;;;;4989171;28;20037;-81
2022/10/22 06:36:11;;;;;;;;;;;9.40;99.90;;;;;;5139129;23;20059;-81
2022/10/22 06:38:36;;;;;;;12.80;7.88;;;9.50;99.90;;;;;;4967831;28;19921;-82
2022/10/22 06:41:04;;;;;;;13.48;8.13;;;9.60;99.90;;;;;;4971958;28;20032;-82
2022/10/22 06:43:30;;;;;;;12.15;8.65;;;9.70;99.90;;;;;;5022139;23;20065;-81
2022/10/22 06:46:04;;;;;;;14.48;9.20;;;9.80;99.90;;;;;;4995420;28;20030;-80
2022/10/22 06:48:30;;;;;;;14.70;7.38;;;9.90;99.90;;;;;;5009209;28;20057;-80
2022/10/22 06:51:00;;;;;;;13.75;7.40;;;10.00;99.90;;;;;;5011835;28;20026;-80
2022/10/22 06:53:26;;;;;;;14.10;7.95;;;10.00;99.90;;;;;;5004885;28;20026;-79
2022/10/22 06:55:53;;;;;;;16.85;8.02;;;10.10;99.90;;;;;;4987872;28;20041;-79
2022/10/22 06:58:18;;;;;;;16.13;8.30;;;10.20;99.90;;;;;;5003130;28;20034;-80
2022/10/22 07:00:44;;;;;;;18.17;8.88;;;10.20;99.90;;;;;;5002506;28;20033;-69
2022/10/22 07:03:14;;;;;;;14.60;8.18;;;10.30;99.90;;;;;;4977739;28;20029;-71
2022/10/22 07:05:41;;;;;;;12.88;7.93;;;10.40;99.90;;;;;;4996059;28;20027;-71
2022/10/22 07:08:07;;;;;;;14.82;8.07;;;10.50;99.90;;;;;;4996015;28;20049;-70
2022/10/22 07:10:33;;;;;;;14.95;8.18;;;10.70;99.90;;;;;;4978958;28;20117;-71
2022/10/22 07:12:58;;;;;;;11.02;7.20;;;10.80;99.90;;;;;;4995683;28;20120;-72
2022/10/22 07:15:24;;;;;;;11.90;7.10;;;10.90;99.90;;;;;;4977326;28;20377;-71
2022/10/22 07:17:52;;;;;;;11.35;8.20;;;11.00;99.90;;;;;;4994787;28;20034;-75
2022/10/22 07:20:20;;;;;;;19.05;8.27;;;11.00;99.90;;;;;;4981238;28;20137;-73
2022/10/22 07:22:46;;;;;;;13.43;8.98;;;11.00;99.90;;;;;;4980116;28;20390;-73
2022/10/22 07:25:11;;;;;;;15.40;8.55;;;10.90;99.90;;;;;;4980662;28;20018;-73
2022/10/22 07:27:37;;;;;;;13.30;10.00;;;10.80;99.90;;;;;;4999463;28;20045;-72
2022/10/22 07:30:03;;;;;;;22.02;10.88;;;10.70;99.90;;;;;;4983050;28;20097;-73
2022/10/22 07:32:29;;;;;;;18.58;11.60;;;10.80;99.90;;;;;;5001146;28;20170;-73
2022/10/22 07:34:55;;;;;;;16.52;11.38;;;10.80;99.90;;;;;;4981977;28;20098;-74
2022/10/22 07:37:21;;;;;;;18.17;10.77;;;10.70;99.90;;;;;;4982744;28;20113;-73
2022/10/22 07:39:49;;;;;;;15.35;10.50;;;10.70;99.90;;;;;;4983264;28;20030;-74
2022/10/22 07:42:15;;;;;;;17.20;11.32;;;10.80;99.90;;;;;;4999911;28;20058;-75
2022/10/22 07:44:41;;;;;;;21.45;11.18;;;10.70;99.90;;;;;;4984284;28;20363;-74
2022/10/22 07:47:06;;;;;;;18.17;11.48;;;10.80;99.90;;;;;;4985865;28;20035;-74
2022/10/22 07:49:32;;;;;;;24.23;11.25;;;10.80;99.90;;;;;;4984477;28;20022;-76
2022/10/22 07:51:57;;;;;;;16.45;11.15;;;10.80;99.90;;;;;;4999641;28;20085;-74
2022/10/22 07:54:23;;;;;;;16.77;11.15;;;10.80;99.90;;;;;;5000445;28;20030;-74
2022/10/22 07:56:49;;;;;;;18.83;11.50;;;10.70;99.90;;;;;;4981499;28;20489;-72
2022/10/22 07:59:15;;;;;;;17.88;12.52;;;10.80;99.90;;;;;;4978314;28;20034;-73
2022/10/22 08:01:40;;;;;;;18.92;11.18;;;10.80;99.90;;;;;;4995235;28;20037;-73
2022/10/22 08:04:08;;;;;;;18.15;11.52;;;10.90;99.90;;;;;;4977972;28;20042;-73
2022/10/22 08:06:35;;;;;;;16.75;11.10;;;10.90;99.90;;;;;;4995395;28;20466;-74
2022/10/22 08:09:01;;;;;;;20.20;11.80;;;10.90;99.90;;;;;;4996776;28;20475;-76
2022/10/22 08:11:27;;;;;;;17.85;12.43;;;10.90;99.90;;;;;;4996746;28;20033;-75
2022/10/22 08:13:52;;;;;;;17.10;11.50;;;10.90;99.90;;;;;;4977409;28;20117;-66
2022/10/22 08:16:18;;;;;;;21.25;11.98;;;11.00;99.90;;;;;;4994110;28;20027;-67
2022/10/22 08:18:44;;;;;;;19.50;11.55;;;11.00;99.90;;;;;;4993806;28;20038;-67
2022/10/22 08:21:11;;;;;;;18.98;12.25;;;11.10;99.90;;;;;;4994341;28;20062;-66
2022/10/22 08:23:37;;;;;;;16.15;11.07;;;11.10;99.90;;;;;;4994351;28;20033;-66
2022/10/22 08:26:03;;;;;;;17.92;11.73;;;11.20;99.90;;;;;;4994591;28;20034;-66
2022/10/22 08:28:31;;;;;;;17.38;11.73;;;11.20;99.90;;;;;;4993886;28;20371;-66
2022/10/22 08:31:00;;;;;;;21.05;11.70;;;11.20;99.90;;;;;;4993999;28;20562;-66
2022/10/22 08:33:26;;;;;;;21.65;12.63;;;11.20;99.90;;;;;;4977037;28;20180;-66
2022/10/22 08:35:52;;;;;;;25.58;13.07;;;11.20;99.90;;;;;;4993670;28;20034;-67
2022/10/22 08:38:18;;;;;;;21.23;12.57;;;11.10;99.90;;;;;;4976651;28;20026;-66
2022/10/22 08:40:50;;;;;;;16.92;12.70;;;11.10;99.90;;;;;;4993805;28;20066;-66
2022/10/22 08:44:01;;;;;;;19.40;13.15;;;11.00;99.90;;;;;;4996628;28;20101;-66
2022/10/22 08:46:58;;;;;;;25.35;14.23;;;10.80;99.90;;;;;;4996732;28;20045;-65
2022/10/22 08:49:27;;;;;;;21.17;13.07;;;10.70;99.90;;;;;;4997559;28;20089;-66
2022/10/22 08:51:56;;;;;;;20.52;13.90;;;10.60;99.90;;;;;;4979749;28;20027;-65
2022/10/22 08:58:23;;;;;;;23.87;16.03;;;10.40;99.90;;;;;;4918190;29;20039;-65
2022/10/22 09:00:59;;;;;;;22.13;14.52;;;10.40;99.90;;;;;;4918099;29;20044;-66
2022/10/22 09:03:56;;;;;;;24.45;16.58;;;10.40;99.90;;;;;;4918259;29;20115;-67
2022/10/22 09:06:28;;;;;;;26.60;15.70;;;10.40;99.90;;;;;;4917686;29;20039;-67
2022/10/22 09:08:55;;;;;;;27.95;16.30;;;10.40;99.90;;;;;;4918631;29;20078;-72
2022/10/22 09:11:27;;;;;;;28.25;17.73;;;10.50;99.90;;;;;;4903668;29;20024;-73
2022/10/22 09:13:55;;;;;;;30.15;18.35;;;10.60;99.90;;;;;;4918672;29;20028;-73
2022/10/22 09:16:35;;;;;;;33.95;18.88;;;10.60;99.90;;;;;;4902793;29;20118;-73
2022/10/22 09:19:19;;;;;;;31.77;17.52;;;10.70;99.90;;;;;;4920327;29;20076;-74
2022/10/22 09:22:15;;;;;;;29.17;18.75;;;10.80;99.90;;;;;;4921034;29;20036;-73
2022/10/22 09:24:46;;;;;;;29.30;16.90;;;10.90;99.90;;;;;;4920948;29;20047;-74
2022/10/22 09:27:24;;;;;;;26.85;17.73;;;11.00;99.90;;;;;;4903857;29;20051;-74
2022/10/22 09:29:50;;;;;;;29.83;18.80;;;11.10;99.90;;;;;;4902091;29;20086;-74
2022/10/22 09:32:17;;;;;;;28.98;18.88;;;11.20;99.90;;;;;;4902424;29;20812;-73
2022/10/22 09:34:47;;;;;;;25.95;18.38;;;11.20;99.90;;;;;;4953564;28;20041;-73
2022/10/22 09:37:18;;;;;;;25.20;17.40;;;11.30;99.90;;;;;;4996908;28;20041;-74
2022/10/22 09:39:47;;;;;;;28.75;17.83;;;11.40;99.90;;;;;;4978808;28;20490;-73
2022/10/22 09:42:16;;;;;;;26.73;18.30;;;11.50;99.90;;;;;;4995693;28;20176;-73
2022/10/22 09:44:42;;;;;;;30.00;18.35;;;11.60;99.90;;;;;;4978599;28;20504;-73
2022/10/22 09:47:32;;;;;;;33.90;19.23;;;11.70;99.90;;;;;;4996181;28;20084;-74
2022/10/22 09:50:27;;;;;;;27.20;17.58;;;11.80;99.90;;;;;;4978593;28;20450;-74
2022/10/22 09:53:03;;;;;;;31.85;18.70;;;11.90;99.90;;;;;;4995767;28;20054;-74
2022/10/22 09:55:29;;;;;;;30.27;16.20;;;12.00;99.90;;;;;;4996297;28;20034;-73
2022/10/22 09:57:57;;;;;;;27.33;15.95;;;12.20;99.90;;;;;;4979066;28;20041;-72
2022/10/22 10:00:25;;;;;;;22.70;14.53;;;12.40;99.90;;;;;;4979187;28;20022;-72
2022/10/22 10:02:55;;;;;;;20.65;14.52;;;12.60;99.90;;;;;;4979317;28;20026;-72
2022/10/22 10:05:29;;;;;;;20.33;13.73;;;12.80;99.90;;;;;;4996097;28;20023;-72
2022/10/22 10:07:55;;;;;;;29.75;14.60;;;13.00;99.90;;;;;;4979706;28;20500;-72
2022/10/22 10:10:59;;;;;;;22.63;13.60;;;13.10;99.90;;;;;;4997122;28;20030;-76
2022/10/22 10:13:27;;;;;;;21.13;13.02;;;13.30;99.90;;;;;;4921260;29;20028;-73
2022/10/22 10:15:55;;;;;;;21.90;12.60;;;13.40;99.90;;;;;;4986620;28;20034;-72
2022/10/22 10:18:47;;;;;;;19.45;13.55;;;13.50;99.90;;;;;;4998585;28;20078;-72
2022/10/22 10:21:24;;;;;;;21.60;13.00;;;13.50;99.90;;;;;;4997363;28;20097;-73
2022/10/22 10:24:25;;;;;;;18.83;12.95;;;13.50;99.90;;;;;;4996093;28;20084;-72
2022/10/22 10:27:29;;;;;;;19.83;13.20;;;13.50;99.90;;;;;;4995426;28;20035;-74
2022/10/22 10:30:08;;;;;;;20.35;13.10;;;13.60;99.90;;;;;;4951950;28;20042;-74
2022/10/22 10:32:52;;;;;;;18.83;12.50;;;13.70;99.90;;;;;;4977989;28;20042;-74
2022/10/22 10:35:35;;;;;;;17.27;12.38;;;13.80;99.90;;;;;;4977812;28;20081;-74
2022/10/22 10:38:00;;;;;;;17.73;12.45;;;13.80;99.90;;;;;;4978286;28;20035;-74
2022/10/22 10:40:34;;;;;;;18.00;11.52;;;13.90;99.90;;;;;;4995247;28;20529;-74
2022/10/22 10:43:14;;;;;;;16.90;11.52;;;13.90;99.90;;;;;;4977610;28;20050;-73
2022/10/22 10:45:57;;;;;;;18.73;12.50;;;14.00;99.90;;;;;;4977508;28;20529;-73
2022/10/22 10:48:38;;;;;;;13.52;10.70;;;14.10;99.90;;;;;;4977533;28;20044;-72
2022/10/22 10:51:42;;;;;;;15.52;10.02;;;14.20;99.90;;;;;;4977836;28;20081;-73
2022/10/22 10:54:31;;;;;;;13.23;9.30;;;14.30;99.90;;;;;;4899989;29;20035;-72
2022/10/22 10:57:08;;;;;;;14.93;10.07;;;14.40;99.90;;;;;;4974012;28;20039;-74
2022/10/22 11:00:02;;;;;;;13.15;8.63;;;14.60;99.90;;;;;;4977220;28;20117;-73
2022/10/22 11:03:03;;;;;;;14.43;9.57;;;14.60;99.90;;;;;;4977456;28;20030;-73
2022/10/22 11:05:42;;;;;;;9.27;8.05;;;14.70;99.90;;;;;;4976433;28;20022;-74
2022/10/22 11:08:08;;;;;;;13.15;9.57;;;14.80;99.90;;;;;;4994728;28;20035;-73
2022/10/22 11:10:53;;;;;;;16.55;9.52;;;14.80;99.90;;;;;;4994558;28;20100;-73
2022/10/22 11:13:27;;;;;;;12.07;7.68;;;14.90;99.90;;;;;;4977089;28;20058;-73
2022/10/22 11:16:03;;;;;;;11.75;7.70;;;15.00;99.90;;;;;;4977185;28;20026;-73
2022/10/22 11:18:39;;;;;;;7.60;6.22;;;15.00;99.90;;;;;;4977133;28;20085;-72
2022/10/22 11:21:25;;;;;;;8.90;6.57;;;15.10;99.90;;;;;;4994409;28;20157;-74
2022/10/22 11:24:09;;;;;;;9.00;5.82;;;15.20;99.90;;;;;;4994281;28;20022;-73
2022/10/22 11:26:42;;;;;;;11.77;6.40;;;15.30;99.90;;;;;;4977350;28;20104;-73
2022/10/22 11:29:14;;;;;;;10.73;5.15;;;15.40;99.90;;;;;;4976782;28;20034;-72
2022/10/22 11:31:40;;;;;;;8.15;4.95;;;15.50;99.90;;;;;;4994688;28;20026;-73
2022/10/22 11:34:21;;;;;;;5.88;5.03;;;15.50;99.90;;;;;;4976570;28;20030;-73
2022/10/22 11:36:48;;;;;;;8.48;5.10;;;15.50;99.90;;;;;;4976992;28;20038;-73
2022/10/22 11:39:35;;;;;;;5.90;4.45;;;15.50;99.90;;;;;;4993847;28;20069;-73
2022/10/22 11:42:04;;;;;;;5.43;4.18;;;15.50;99.90;;;;;;4976737;28;20537;-73
2022/10/22 11:44:31;;;;;;;5.75;4.45;;;15.50;99.90;;;;;;4976987;28;20117;-73
2022/10/22 11:47:08;;;;;;;6.97;4.20;;;15.40;99.90;;;;;;4994230;28;20041;-73
2022/10/22 11:50:15;;;;;;;5.85;4.25;;;15.40;99.90;;;;;;4994433;28;20491;-73
2022/10/22 11:53:08;;;;;;;4.38;3.15;;;15.40;99.90;;;;;;4994068;28;20065;-73
2022/10/22 11:55:50;;;;;;;3.20;2.90;;;15.40;99.90;;;;;;4963291;28;20099;-73
2022/10/22 11:58:27;;;;;;;5.10;2.88;;;15.40;99.90;;;;;;4994123;28;20089;-73
2022/10/22 12:00:55;;;;;;;3.20;2.90;;;15.40;99.90;;;;;;4976692;28;20057;-73
2022/10/22 12:03:39;;;;;;;4.47;2.90;;;15.40;99.90;;;;;;4994045;28;20022;-73
2022/10/22 12:06:11;;;;;;;3.22;2.30;;;15.30;99.90;;;;;;4976671;28;20095;-73
2022/10/22 12:08:52;;;;;;;2.97;2.60;;;15.30;99.90;;;;;;4976558;28;20117;-73
2022/10/22 12:11:32;;;;;;;6.55;2.60;;;15.20;99.90;;;;;;4976612;28;20466;-72
2022/10/22 12:14:18;;;;;;;3.28;2.97;;;15.20;99.90;;;;;;4994451;28;20483;-73
2022/10/22 12:16:45;;;;;;;3.55;3.00;;;15.20;99.90;;;;;;4977773;28;20041;-73
2022/10/22 12:19:23;;;;;;;3.28;2.97;;;15.20;99.90;;;;;;4997902;28;20027;-73
2022/10/22 12:21:56;;;;;;;6.28;3.10;;;15.20;99.90;;;;;;4997755;28;20038;-73
2022/10/22 12:24:24;;;;;;;5.38;2.63;;;15.20;99.90;;;;;;4997354;28;20485;-73
2022/10/22 12:26:51;;;;;;;6.68;2.67;;;15.20;99.90;;;;;;4980215;28;20493;-73
2022/10/22 12:29:18;;;;;;;3.20;2.33;;;15.20;99.90;;;;;;4980098;28;20116;-73
2022/10/22 12:31:45;;;;;;;2.97;2.35;;;15.30;99.90;;;;;;4997523;28;20022;-73
2022/10/22 12:34:17;;;;;;;6.13;2.80;;;15.30;99.90;;;;;;4997514;28;20031;-73
2022/10/22 12:36:46;;;;;;;2.95;2.58;;;15.30;99.90;;;;;;4997451;28;20027;-73
2022/10/22 12:39:16;;;;;;;3.22;2.90;;;15.30;99.90;;;;;;4979616;28;20085;-73
2022/10/22 12:41:42;;;;;;;5.57;4.28;;;15.30;99.90;;;;;;4979569;28;20478;-73
2022/10/22 12:44:12;;;;;;;5.82;2.70;;;15.30;99.90;;;;;;4979756;28;20029;-73
2022/10/22 12:46:38;;;;;;;3.78;2.45;;;15.30;99.90;;;;;;4997480;28;20370;-73
2022/10/22 12:49:19;;;;;;;3.70;2.97;;;15.30;99.90;;;;;;4997228;28;20034;-73
2022/10/22 12:51:46;;;;;;;4.35;2.35;;;15.30;99.90;;;;;;4997531;28;20550;-73
2022/10/22 12:54:27;;;;;;;7.10;2.53;;;15.20;99.90;;;;;;4979472;28;20121;-57
2022/10/22 12:56:55;;;;;;;3.30;2.53;;;15.40;99.90;;;;;;4997032;28;20065;-57
2022/10/22 12:59:28;;;;;;;4.13;3.50;;;15.40;99.90;;;;;;4997081;28;20030;-57
2022/10/22 13:01:55;;;;;;;6.13;2.60;;;15.50;99.90;;;;;;4997171;28;20030;-61
2022/10/22 13:04:30;;;;;;;2.85;2.35;;;15.50;99.90;;;;;;4996833;28;20050;-57